Terminal Aerodrome Forecast
Issued by NWS

Home | Current Version | Previous Version | Text Only | Print | Product List | Glossary On
Versions: 1 2 3 4 5 6 7 8 9 10 11 12 13 14 15 16 17 18 19 20 21 22 23 24
000
FTUS41 KCAR 011700
TAFBHB
TAF
KBHB 011720Z 0118/0218 15005KT P6SM SCT030
     FM012300 18004KT P6SM BKN050
     FM020200 17004KT 6SM BR BKN020
     FM020300 17004KT 5SM BR SCT003
     FM020400 17004KT 2SM BR SCT001
     FM020500 VRB03KT 1/2SM FG VV001
     FM021200 VRB03KT 2SM BR SCT001 OVC003
     FM021500 17005KT P6SM OVC015
      AMD LTD TO CLD VIS AND WIND=

USA.gov is the U.S. government's official web portal to all federal, state and local government web resources and services.